Airport View

Enter AWOS ICAO identifier for current METAR.

ex. KFNL

KDSM 080654Z 06004KT 10SM CLR 16/07 A2974 RMK AO2 SLP063 T01610072

8 Apr 2020 07:47

Phone: 515-974-8013

Other Area AWOS: KIKV - KAMW - KPRO - KOXV

TAF KDSM 080535Z 0806/0906 VRB04KT P6SM SKC FM081600 32011G18KT P6SM VCSH SCT080 BKN150 FM081900 34017G27KT P6SM VCSH BKN070 OVC120 FM082300 32013G20KT P6SM SCT100 BKN150 FM090400 31010KT P6SM FEW200